»·PEaware :: APA8209 NZCH-NZAA

APA8209 :: NZCH-NZAA

FLIGHT INFORMATION

Flight Status: Arrived
Operator: Unknown
More flights by this operator :: More flights under this callsign
Pilot: Stacy K. (11621)
Aircraft: BOEING 737-800
(B738)
More flights by this aircraft type
Origin: NZCH Christchurch Intl
New Zealand
Destination: NZAA Auckland Intl
New Zealand
More flights between these airports :: More routes between these airports
Route: BIDE4Q GLENN Y175 OMKUN Y655 POKOM Q277 DAVEE DAVE4A
File this flight plan on PilotEdge
Remarks: PBN / A1B1C1D1S1S2 DOF / 180607 REG / N1404PK EET / NZZO0046 SEL / DEFK OPR / APA PER / C RMK / TCAS SIMBRIEF
Altitude:
(Current/Filed)
35,000ft
Speed:
(Current/Filed)
432kts
Departed: 06-Jun-18 06:28 PM
Arrived: 06-Jun-18 07:32 PM
Distance/Time
Traveled:
402nm/1:04
Distance/Time
To Go:
Arrived

Flight Plot

Page will automatically refresh every two minutes.

Flight plan parsing failed; only flown route is shown


Map Options




Map Legend


Flown Route
Filed Route
Departure Airport
Arrival Airport
Navaid (VOR, NDB)
Fix

Horizontal Profiles

Position Reports

Time Latitude Longitude Heading Altitude Ground
Speed
06-Jun-18 17:56 -43.487280 172.538923 129 132ft 0kts
06-Jun-18 17:57 -43.487280 172.538923 129 132ft 0kts
06-Jun-18 17:58 -43.487280 172.538923 129 132ft 0kts
06-Jun-18 17:59 -43.487280 172.538923 129 132ft 0kts
06-Jun-18 18:00 -43.487280 172.538923 129 132ft 0kts
06-Jun-18 18:01 -43.487280 172.538923 129 132ft 0kts
06-Jun-18 18:02 -43.487280 172.538923 129 132ft 0kts
06-Jun-18 18:03 -43.487280 172.538923 129 132ft 0kts
06-Jun-18 18:04 -43.487280 172.538923 129 132ft 0kts
06-Jun-18 18:05 -43.487280 172.538923 129 132ft 0kts
06-Jun-18 18:06 -43.487280 172.538923 129 132ft 0kts
06-Jun-18 18:07 -43.487280 172.538923 129 132ft 0kts
06-Jun-18 18:08 -43.487280 172.538923 129 132ft 0kts
06-Jun-18 18:09 -43.487280 172.538923 129 132ft 0kts
06-Jun-18 18:10 -43.487280 172.538923 129 132ft 0kts
06-Jun-18 18:11 -43.487280 172.538923 129 132ft 0kts
06-Jun-18 18:12 -43.487280 172.538923 129 132ft 0kts
06-Jun-18 18:13 -43.487280 172.538923 129 132ft 0kts
06-Jun-18 18:14 -43.487280 172.538923 129 132ft 0kts
06-Jun-18 18:15 -43.487280 172.538923 129 132ft 0kts
06-Jun-18 18:16 -43.487280 172.538923 129 132ft 0kts
06-Jun-18 18:17 -43.487280 172.538923 129 132ft 0kts
06-Jun-18 18:18 -43.487280 172.538923 129 132ft 0kts
06-Jun-18 18:19 -43.487280 172.538923 129 132ft 0kts
06-Jun-18 18:20 -43.486980 172.538293 108 132ft 2kts
06-Jun-18 18:21 -43.487084 172.537754 40 132ft 2kts
06-Jun-18 18:22 -43.487103 172.537732 40 132ft 0kts
06-Jun-18 18:23 -43.487103 172.537732 40 132ft 0kts
06-Jun-18 18:24 -43.485896 172.539157 40 132ft 17kts
06-Jun-18 18:25 -43.481554 172.544156 40 132ft 21kts
06-Jun-18 18:26 -43.478219 172.548006 39 132ft 23kts
06-Jun-18 18:27 -43.476091 172.548954 343 132ft 0kts
06-Jun-18 18:28 -43.479345 172.543274 219 133ft 112kts
06-Jun-18 18:29 -43.518653 172.497664 218 3678ft 223kts
06-Jun-18 18:30 -43.560435 172.426869 258 8643ft 272kts
06-Jun-18 18:31 -43.504413 172.369181 13 13577ft 289kts
06-Jun-18 18:32 -43.435458 172.454444 54 14710ft 392kts
06-Jun-18 18:33 -43.353735 172.565095 51 17673ft 424kts
06-Jun-18 18:34 -43.244501 172.644651 29 20253ft 460kts
06-Jun-18 18:35 -43.123428 172.710263 27 22237ft 477kts
06-Jun-18 18:36 -42.998001 172.776946 27 23901ft 489kts
06-Jun-18 18:37 -42.870249 172.845086 27 25288ft 497kts
06-Jun-18 18:38 -42.739291 172.912775 26 26369ft 506kts
06-Jun-18 18:39 -42.607095 172.980447 26 27244ft 514kts
06-Jun-18 18:40 -42.472395 173.049387 26 27935ft 520kts
06-Jun-18 18:41 -42.337449 173.118101 26 28864ft 518kts
06-Jun-18 18:42 -42.202637 173.186495 25 29821ft 516kts
06-Jun-18 18:43 -42.068282 173.254418 26 30705ft 515kts
06-Jun-18 18:44 -41.933662 173.322708 26 31506ft 514kts
06-Jun-18 18:45 -41.800357 173.390466 26 32465ft 511kts
06-Jun-18 18:46 -41.666672 173.457343 26 33084ft 514kts
06-Jun-18 18:47 -41.533365 173.523318 26 33665ft 508kts
06-Jun-18 18:48 -41.400713 173.588303 26 34468ft 505kts
06-Jun-18 18:49 -41.269377 173.652568 26 35058ft 501kts
06-Jun-18 18:50 -41.138651 173.717018 27 35066ft 499kts
06-Jun-18 18:51 -41.008508 173.780978 27 35064ft 498kts
06-Jun-18 18:52 -40.878271 173.844579 27 35063ft 499kts
06-Jun-18 18:53 -40.747950 173.907372 27 35063ft 499kts
06-Jun-18 18:54 -40.616911 173.969924 27 35064ft 500kts
06-Jun-18 18:55 -40.486748 174.032714 27 35064ft 498kts
06-Jun-18 18:56 -40.356072 174.094879 27 35065ft 499kts
06-Jun-18 18:57 -40.225371 174.156521 27 35065ft 498kts
06-Jun-18 18:58 -40.094813 174.218007 27 35066ft 499kts
06-Jun-18 18:59 -39.964058 174.279721 27 35067ft 499kts
06-Jun-18 19:00 -39.833236 174.341262 27 35067ft 499kts
06-Jun-18 19:01 -39.703187 174.402523 27 35068ft 498kts
06-Jun-18 19:02 -39.572385 174.463652 27 35068ft 499kts
06-Jun-18 19:03 -39.437914 174.513408 16 35071ft 510kts
06-Jun-18 19:04 -39.297478 174.540863 14 35072ft 512kts
06-Jun-18 19:05 -39.156334 174.566638 14 35072ft 511kts
06-Jun-18 19:06 -39.015164 174.593581 14 35072ft 512kts
06-Jun-18 19:07 -38.874400 174.620452 14 35072ft 512kts
06-Jun-18 19:08 -38.733050 174.646814 15 33579ft 516kts
06-Jun-18 19:09 -38.614940 174.668959 15 32081ft 512kts
06-Jun-18 19:10 -38.474709 174.694784 15 30275ft 504kts
06-Jun-18 19:11 -38.337724 174.720161 16 28478ft 492kts
06-Jun-18 19:12 -38.203897 174.745198 15 26675ft 479kts
06-Jun-18 19:13 -38.073659 174.769135 15 24876ft 467kts
06-Jun-18 19:14 -37.947564 174.792288 15 23083ft 448kts
06-Jun-18 19:15 -37.825450 174.807607 6 21281ft 435kts
06-Jun-18 19:16 -37.737757 174.808948 5 19953ft 421kts
06-Jun-18 19:17 -37.623526 174.809774 4 18156ft 401kts
06-Jun-18 19:18 -37.513857 174.810555 3 16352ft 386kts
06-Jun-18 19:19 -37.413263 174.812097 3 14542ft 330kts
06-Jun-18 19:20 -37.323001 174.813377 2 12741ft 319kts
06-Jun-18 19:21 -37.265262 174.826137 31 11507ft 302kts
06-Jun-18 19:22 -37.199342 174.886678 43 9736ft 292kts
06-Jun-18 19:23 -37.137512 174.950656 43 7936ft 285kts
06-Jun-18 19:24 -37.080199 175.010483 42 6125ft 257kts
06-Jun-18 19:25 -37.026260 175.066771 42 4324ft 247kts
06-Jun-18 19:26 -36.966890 175.061260 309 3040ft 225kts
06-Jun-18 19:27 -36.954048 174.999255 265 2994ft 171kts
06-Jun-18 19:28 -36.962916 174.956057 239 2504ft 160kts
06-Jun-18 19:29 -36.979428 174.903941 245 1645ft 155kts
06-Jun-18 19:30 -36.993083 174.854745 245 868ft 154kts
06-Jun-18 19:31 -37.005998 174.807640 242 132ft 129kts
06-Jun-18 19:32 -37.012162 174.785731 251 32ft 17kts
06-Jun-18 19:33 -37.011971 174.781089 338 32ft 7kts
06-Jun-18 19:34 -37.009898 174.783670 76 32ft 11kts
06-Jun-18 19:35 -37.008500 174.788931 71 32ft 17kts
06-Jun-18 19:36 -37.007528 174.791518 30 32ft 5kts
06-Jun-18 19:37 -37.007037 174.791442 341 32ft 0kts
06-Jun-18 19:38 -37.007037 174.791442 341 32ft 0kts
06-Jun-18 19:39 -37.007037 174.791442 341 32ft 0kts
06-Jun-18 19:40 -37.007037 174.791442 341 32ft 0kts
06-Jun-18 19:41 -37.007037 174.791442 341 32ft 0kts
06-Jun-18 19:42 -37.007037 174.791442 341 32ft 0kts
06-Jun-18 19:43 -37.007037 174.791442 341 32ft 0kts

Navigation Log

Ident Type
Flight plan parsing failed, navigation log unavailable